NVVVNFTF

Guest
Details From NVVV - Bauerfield
To NFTF - Fua Amotu Intl
Flight Number -
Tags decoded
Created
Modified
Stats Distance 991 nm / 1,835 km
Max Altitude 0 ft / 0 m
Waypoints 3
Social Downloads 2
Likes 0
Share VATSIM

Download

Looking for another format? Having issues loading an existing format? Contact us
Advertisement - Login to hide

Notes

Requested: NVVV NFFN NFTF

Route

NVVV NFFN NFTF

ID Type Via Altitude Latitude Longitude Leg Dist Tot Dist Heading (true) Name
O NVVV APT - 0 ft / 0 m -17.69818˚ 168.31754˚ - 0 nm - Bauerfield
NFFN APT - 0 ft / 0 m -17.75837˚ 177.44215˚ 521 nm 521 nm 92° / 89° Nadi Intl
O NFTF APT - 0 ft / 0 m -21.24249˚ -175.14457˚ 468 nm 990 nm 118° / 115° Fua Amotu Intl

Altitude Profile

Advertisement - Login to hide

Weather


0- 5 10 15 20 25 30 35+ Temperature / ° C

Clouds and Precipitation
Forecast for 2018-05-20 12:00 UTC. Updated an hour ago

Ground ~20,000 ft ~40,000 ft Winds

NVVV

Details ICAO NVVV (VLI)
Name Bauerfield
Region Vanuatu
Timezone Pacific/Efate (UTC+11.0)
Stats Elevation 70 ft / 21 m (AMSL)
Location -17.698183° 168.317539°
Runways 1
Magnetic Variation 11.560° E

METAR

Not found

TAF

TAF NVVV 200430Z 2006/2106 11009KT 9999 SCT020 BKN040 INTER 2006/2012 7000 SHRA SCT010 BKN018 OVC035 BECMG 2006/2008 VRB03KT

Decode

Departure Runways

ID Width Length Bearing (true) Bearing (mag) Surface Threshold Offset Overrun Length
11 148 ft / 45 m 8,531 ft / 2,600 m 118.01° 106.45° Asphalt 0 ft / 0 m 197 ft / 60 m
29 148 ft / 45 m 8,531 ft / 2,600 m 298.01° 286.45° Asphalt 0 ft / 0 m 197 ft / 60 m

NFTF

Details ICAO NFTF (TBU)
Name Fua Amotu Intl
Region Fiji and Tonga
Timezone Pacific/Tongatapu (UTC+13.0)
Stats Elevation 126 ft / 38 m (AMSL)
Location -21.242493° -175.144569°
Runways 2
Magnetic Variation 13.684° E

METAR

NFTF 201000Z 11003KT 9999 FEW016 22/22 Q1016 RMK GRASS DEW

Decode

TAF

TAF NFTF 200518Z 2006/2106 10007KT 9999 FEW017

Decode

Destination Runways

ID Width Length Bearing (true) Bearing (mag) Surface Threshold Offset Overrun Length
11 148 ft / 45 m 8,967 ft / 2,733 m 122.10° 108.42° Asphalt 0 ft / 0 m 194 ft / 59 m
17 194 ft / 59 m 4,960 ft / 1,512 m 182.40° 168.72° Unknown 0 ft / 0 m 0 ft / 0 m
29 148 ft / 45 m 8,967 ft / 2,733 m 302.09° 288.41° Asphalt 0 ft / 0 m 194 ft / 59 m
35 194 ft / 59 m 4,960 ft / 1,512 m 2.40° 348.72° Unknown 0 ft / 0 m 0 ft / 0 m

Popular Alternatives